createdAt,value
2019-06-10T00:02:13.277Z,93579.23
2019-06-10T00:04:41.721Z,93571.88
2019-06-10T00:07:11.629Z,93566.50
2019-06-10T00:09:40.756Z,93575.19
2019-06-10T00:12:12.380Z,93588.93
2019-06-10T00:14:41.675Z,93593.01
2019-06-10T00:17:10.997Z,93606.97
2019-06-10T00:19:40.960Z,93613.48
2019-06-10T00:22:11.612Z,93621.70
2019-06-10T00:24:40.925Z,93631.43
2019-06-10T00:27:11.472Z,93636.52
2019-06-10T00:29:40.873Z,93629.13
2019-06-10T00:32:12.614Z,93629.42
2019-06-10T00:34:38.952Z,93624.09
2019-06-10T00:37:09.238Z,93616.53
2019-06-10T00:39:36.958Z,93616.21
2019-06-10T00:42:07.971Z,93620.69
2019-06-10T00:44:36.083Z,93609.66
2019-06-10T00:47:06.985Z,93590.36
2019-06-10T00:49:35.395Z,93579.16
2019-06-10T00:52:04.648Z,93589.27
2019-06-10T00:54:34.068Z,93600.46
2019-06-10T00:57:02.879Z,93607.39
2019-06-10T00:59:32.133Z,93613.77
2019-06-10T01:02:01.724Z,93612.53
2019-06-10T01:04:31.861Z,93610.88
2019-06-10T01:07:00.790Z,93619.74
2019-06-10T01:09:31.094Z,93621.16
2019-06-10T01:12:01.063Z,93618.67
2019-06-10T01:14:28.744Z,93621.54
2019-06-10T01:16:57.367Z,93616.93
2019-06-10T01:19:26.032Z,93599.44
2019-06-10T01:21:54.551Z,93604.26
2019-06-10T01:24:22.726Z,93603.56
2019-06-10T01:26:50.669Z,93603.11
2019-06-10T01:29:20.992Z,93604.39
2019-06-10T01:31:51.055Z,93595.52
2019-06-10T01:34:18.771Z,93585.32
2019-06-10T01:36:46.956Z,93580.18
2019-06-10T01:39:16.818Z,93582.99
2019-06-10T01:41:45.705Z,93572.20
2019-06-10T01:44:16.073Z,93571.29
2019-06-10T01:46:44.817Z,93570.33
2019-06-10T01:49:14.748Z,93559.38
2019-06-10T01:51:43.234Z,93540.95
2019-06-10T01:54:12.427Z,93540.03
2019-06-10T01:56:41.097Z,93537.14
2019-06-10T01:59:12.182Z,93537.84
2019-06-10T02:01:48.872Z,93528.24
2019-06-10T02:04:18.247Z,93520.47
2019-06-10T02:06:46.325Z,93506.52
2019-06-10T02:09:15.544Z,93520.06
2019-06-10T02:11:44.424Z,93537.92
2019-06-10T02:14:16.152Z,93553.41
2019-06-10T02:16:42.846Z,93577.58
2019-06-10T02:19:13.937Z,93604.63
2019-06-10T02:21:41.751Z,93612.17
2019-06-10T02:24:11.639Z,93604.69
2019-06-10T02:26:41.062Z,93563.09
2019-06-10T02:29:11.196Z,93530.22
2019-06-10T02:31:42.839Z,93507.62
2019-06-10T02:34:13.280Z,93517.53
2019-06-10T02:36:44.253Z,93534.38
2019-06-10T02:41:38.383Z,93547.44
2019-06-10T02:44:07.630Z,93548.13
2019-06-10T02:46:36.560Z,93539.48
2019-06-10T02:49:20.699Z,93544.23
2019-06-10T02:51:36.098Z,93553.23
2019-06-10T02:54:05.047Z,93578.95
2019-06-10T02:56:36.283Z,93603.34
2019-06-10T02:59:03.566Z,93601.92
2019-06-10T03:01:37.044Z,93599.67
2019-06-10T03:04:04.628Z,93579.13
2019-06-10T03:06:39.496Z,93562.79
2019-06-10T03:09:03.996Z,93543.13
2019-06-10T03:11:36.918Z,93534.12
2019-06-10T03:14:02.722Z,93549.09
2019-06-10T03:16:42.433Z,93548.77
2019-06-10T03:19:10.618Z,93528.94
2019-06-10T03:21:38.877Z,93497.23
2019-06-10T03:24:07.128Z,93480.83
2019-06-10T03:26:35.844Z,93492.92
2019-06-10T03:29:03.735Z,93498.89
2019-06-10T03:31:40.385Z,93497.55
2019-06-10T03:34:04.921Z,93489.98
2019-06-10T03:36:32.335Z,93477.57
2019-06-10T03:39:02.549Z,93481.75
2019-06-10T03:41:32.307Z,93475.39
2019-06-10T03:44:02.554Z,93479.80
2019-06-10T03:46:32.857Z,93484.37
2019-06-10T03:49:03.216Z,93483.09
2019-06-10T03:51:33.319Z,93480.12
2019-06-10T03:54:02.514Z,93479.26
2019-06-10T03:56:32.289Z,93484.58
2019-06-10T03:59:02.865Z,93484.00
2019-06-10T04:01:33.165Z,93488.92
2019-06-10T04:04:02.348Z,93488.32
2019-06-10T04:06:33.711Z,93485.89
2019-06-10T04:09:02.773Z,93492.41
2019-06-10T04:11:35.244Z,93483.13
2019-06-10T04:14:02.478Z,93476.74
2019-06-10T04:16:32.783Z,93483.17
2019-06-10T04:19:02.575Z,93490.84
2019-06-10T04:21:32.627Z,93486.15
2019-06-10T04:24:02.236Z,93479.17
2019-06-10T04:26:32.130Z,93497.67
2019-06-10T04:29:02.441Z,93496.89
2019-06-10T04:31:33.053Z,93484.92
2019-06-10T04:34:03.162Z,93473.02
2019-06-10T04:36:33.083Z,93460.25
2019-06-10T04:39:03.277Z,93451.16
2019-06-10T04:41:32.455Z,93455.84
2019-06-10T04:44:02.626Z,93466.91
2019-06-10T04:46:32.564Z,93476.67
2019-06-10T04:49:02.788Z,93482.13
2019-06-10T04:51:32.925Z,93471.52
2019-06-10T04:54:03.012Z,93469.63
2019-06-10T04:56:33.415Z,93472.81
2019-06-10T04:59:03.110Z,93477.83
2019-06-10T05:01:33.621Z,93468.59
2019-06-10T05:04:03.232Z,93457.98
2019-06-10T05:06:32.799Z,93462.31
2019-06-10T05:09:01.283Z,93461.03
2019-06-10T05:11:30.748Z,93455.94
2019-06-10T05:13:59.368Z,93444.52
2019-06-10T05:16:31.891Z,93447.53
2019-06-10T05:18:58.035Z,93444.67
2019-06-10T05:21:29.373Z,93447.62
2019-06-10T05:23:56.434Z,93457.00
2019-06-10T05:26:26.055Z,93467.30
2019-06-10T05:28:55.035Z,93468.44
2019-06-10T05:31:26.687Z,93482.59
2019-06-10T05:33:53.162Z,93486.52
2019-06-10T05:36:25.692Z,93480.39
2019-06-10T05:38:52.609Z,93483.21
2019-06-10T05:41:24.102Z,93481.77
2019-06-10T05:43:52.251Z,93484.13
2019-06-10T05:46:23.275Z,93480.33
2019-06-10T05:48:52.637Z,93472.08
2019-06-10T05:51:23.173Z,93466.68
2019-06-10T05:53:52.778Z,93480.56
2019-06-10T05:56:23.347Z,93480.72
2019-06-10T05:58:52.506Z,93477.74
2019-06-10T06:01:22.866Z,93478.67
2019-06-10T06:03:52.903Z,93484.13
2019-06-10T06:06:22.962Z,93488.36
2019-06-10T06:08:53.385Z,93503.36
2019-06-10T06:11:23.106Z,93507.35
2019-06-10T06:13:52.370Z,93502.72
2019-06-10T06:16:22.821Z,93505.08
2019-06-10T06:18:52.667Z,93508.02
2019-06-10T06:21:29.157Z,93515.50
2019-06-10T06:23:52.869Z,93520.34
2019-06-10T06:26:23.642Z,93524.28
2019-06-10T06:28:53.499Z,93530.03
2019-06-10T06:31:23.215Z,93532.61
2019-06-10T06:33:52.644Z,93534.91
2019-06-10T06:36:22.679Z,93538.31
2019-06-10T06:38:53.086Z,93530.24
2019-06-10T06:41:22.623Z,93517.56
2019-06-10T06:43:53.178Z,93506.59
2019-06-10T06:46:23.364Z,93512.31
2019-06-10T06:48:53.200Z,93521.53
2019-06-10T06:51:36.340Z,93524.83
2019-06-10T06:53:55.898Z,93529.40
2019-06-10T06:56:23.104Z,93525.53
2019-06-10T06:58:52.463Z,93518.88
2019-06-10T07:01:25.160Z,93519.69
2019-06-10T07:03:53.606Z,93529.23
2019-06-10T07:06:23.136Z,93540.99
2019-06-10T07:09:03.753Z,93552.97
2019-06-10T07:11:22.609Z,93560.28
2019-06-10T07:13:53.398Z,93558.02
2019-06-10T07:16:23.031Z,93558.48
2019-06-10T07:18:53.668Z,93570.66
2019-06-10T07:21:22.804Z,93553.78
2019-06-10T07:23:52.913Z,93543.88
2019-06-10T07:26:22.241Z,93543.16
2019-06-10T07:28:53.426Z,93543.84
2019-06-10T07:31:24.833Z,93549.42
2019-06-10T07:33:52.591Z,93542.30
2019-06-10T07:36:23.602Z,93545.20
2019-06-10T07:38:54.053Z,93554.79
2019-06-10T07:41:23.219Z,93549.68
2019-06-10T07:43:53.011Z,93551.58
2019-06-10T07:46:23.021Z,93547.47
2019-06-10T07:48:56.184Z,93547.79
2019-06-10T07:51:22.720Z,93551.13
2019-06-10T07:53:52.529Z,93551.34
2019-06-10T07:56:23.380Z,93555.97
2019-06-10T07:58:52.767Z,93558.96
2019-06-10T08:01:22.973Z,93554.34
2019-06-10T08:03:52.665Z,93551.56
2019-06-10T08:06:22.991Z,93554.02
2019-06-10T08:08:53.171Z,93544.97
2019-06-10T08:11:22.915Z,93538.66
2019-06-10T08:13:53.915Z,93528.69
2019-06-10T08:16:23.521Z,93527.70
2019-06-10T08:19:20.498Z,93542.61
2019-06-10T08:21:22.882Z,93532.44
2019-06-10T08:23:54.045Z,93516.02
2019-06-10T08:26:23.158Z,93520.94
2019-06-10T08:28:53.078Z,93521.77
2019-06-10T08:31:22.640Z,93506.80
2019-06-10T08:33:53.427Z,93486.89
2019-06-10T08:36:22.515Z,93491.57
2019-06-10T08:38:52.645Z,93493.41
2019-06-10T08:41:23.883Z,93497.67
2019-06-10T08:43:52.822Z,93501.73
2019-06-10T08:46:22.653Z,93487.05
2019-06-10T08:48:52.551Z,93479.94
2019-06-10T08:51:23.605Z,93478.55
2019-06-10T08:53:53.252Z,93457.73
2019-06-10T08:56:22.435Z,93444.22
2019-06-10T08:58:53.786Z,93446.24
2019-06-10T09:01:22.300Z,93444.78
2019-06-10T09:03:53.411Z,93447.16
2019-06-10T09:06:23.101Z,93445.28
2019-06-10T09:08:54.280Z,93427.12
2019-06-10T09:11:23.690Z,93407.37
2019-06-10T09:13:53.231Z,93383.98
2019-06-10T09:16:22.844Z,93380.38
2019-06-10T09:18:54.966Z,93381.59
2019-06-10T09:21:22.267Z,93398.61
2019-06-10T09:23:58.583Z,93387.42
2019-06-10T09:26:22.985Z,93371.78
2019-06-10T09:28:55.748Z,93363.84
2019-06-10T09:31:23.866Z,93363.17
2019-06-10T09:33:56.236Z,93363.88
2019-06-10T09:36:23.565Z,93375.13
2019-06-10T09:38:55.042Z,93367.82
2019-06-10T09:41:31.001Z,93364.66
2019-06-10T09:43:56.722Z,93348.00
2019-06-10T09:46:23.410Z,93335.38
2019-06-10T09:48:55.753Z,93334.94
2019-06-10T09:51:23.150Z,93330.75
2019-06-10T09:54:02.124Z,93321.67
2019-06-10T09:56:23.022Z,93318.97
2019-06-10T09:58:55.079Z,93341.11
2019-06-10T10:01:24.497Z,93335.41
2019-06-10T10:03:59.260Z,93336.30
2019-06-10T10:06:23.790Z,93316.86
2019-06-10T10:08:56.273Z,93307.81
2019-06-10T10:11:24.192Z,93307.13
2019-06-10T10:13:52.715Z,93306.95
2019-06-10T10:16:22.550Z,93307.97
2019-06-10T10:18:57.535Z,93303.09
2019-06-10T10:21:22.264Z,93308.09
2019-06-10T10:24:04.320Z,93310.75
2019-06-10T10:26:21.489Z,93314.91
2019-06-10T10:28:50.770Z,93311.77
2019-06-10T10:31:19.650Z,93316.80
2019-06-10T10:33:48.521Z,93317.06
2019-06-10T10:36:16.541Z,93329.13
2019-06-10T10:38:44.748Z,93326.81
2019-06-10T10:41:13.523Z,93335.15
2019-06-10T10:43:43.726Z,93337.18
2019-06-10T10:46:13.850Z,93341.96
2019-06-10T10:48:43.025Z,93338.67
2019-06-10T10:51:13.045Z,93348.16
2019-06-10T10:53:46.808Z,93347.27
2019-06-10T10:56:12.835Z,93343.77
2019-06-10T10:58:43.625Z,93339.70
2019-06-10T11:01:15.110Z,93329.45
2019-06-10T11:03:44.091Z,93326.42
2019-06-10T11:06:12.832Z,93320.90
2019-06-10T11:08:44.194Z,93320.45
2019-06-10T11:11:13.620Z,93310.31
2019-06-10T11:13:43.393Z,93290.06
2019-06-10T11:16:11.701Z,93285.72
2019-06-10T11:18:42.238Z,93281.86
2019-06-10T11:21:13.033Z,93285.68
2019-06-10T11:23:43.644Z,93278.17
2019-06-10T11:26:12.428Z,93269.95
2019-06-10T11:28:42.894Z,93258.59
2019-06-10T11:31:13.881Z,93273.38
2019-06-10T11:33:43.539Z,93310.85
2019-06-10T11:36:13.446Z,93289.33
2019-06-10T11:38:42.096Z,93285.18
2019-06-10T11:41:13.571Z,93266.71
2019-06-10T11:43:43.030Z,93301.34
2019-06-10T11:46:13.698Z,93314.89
2019-06-10T11:48:43.473Z,93314.89
2019-06-10T11:51:13.059Z,93316.82
2019-06-10T11:53:44.004Z,93311.03
2019-06-10T11:56:13.076Z,93337.48
2019-06-10T11:58:42.635Z,93342.47
2019-06-10T12:01:12.947Z,93328.91
2019-06-10T12:03:43.147Z,93309.97
2019-06-10T12:06:13.519Z,93278.59
2019-06-10T12:08:43.529Z,93252.14
2019-06-10T12:11:12.671Z,93211.45
2019-06-10T12:13:42.904Z,93241.25
2019-06-10T12:17:08.532Z,93253.98
2019-06-10T12:18:42.596Z,93256.55
2019-06-10T12:21:13.027Z,93271.81
2019-06-10T12:23:43.623Z,93308.51
2019-06-10T12:26:11.126Z,93338.55
2019-06-10T12:28:39.455Z,93331.64
2019-06-10T12:31:07.738Z,93308.58
2019-06-10T12:33:36.031Z,93284.64
2019-06-10T12:36:07.140Z,93259.84
2019-06-10T12:38:34.737Z,93241.98
2019-06-10T12:41:07.979Z,93226.71
2019-06-10T12:43:33.556Z,93199.09
2019-06-10T12:46:02.008Z,93210.22
2019-06-10T12:48:34.031Z,93198.61
2019-06-10T12:51:05.798Z,93186.83
2019-06-10T12:53:32.618Z,93191.19
2019-06-10T12:56:07.292Z,93202.45
2019-06-10T12:58:33.372Z,93231.35
2019-06-10T13:01:05.839Z,93245.28
2019-06-10T13:03:32.957Z,93264.98
2019-06-10T13:06:07.159Z,93279.61
2019-06-10T13:08:34.796Z,93296.80
2019-06-10T13:11:04.129Z,93306.59
2019-06-10T13:13:33.055Z,93291.72
2019-06-10T13:16:04.218Z,93275.78
2019-06-10T13:18:31.879Z,93266.30
2019-06-10T13:21:06.282Z,93287.20
2019-06-10T13:23:32.597Z,93311.73
2019-06-10T13:26:04.271Z,93323.34
2019-06-10T13:28:32.559Z,93326.86
2019-06-10T13:31:04.348Z,93333.80
2019-06-10T13:33:33.170Z,93327.58
2019-06-10T13:36:04.823Z,93337.02
2019-06-10T13:38:33.158Z,93363.45
2019-06-10T13:41:02.311Z,93368.38
2019-06-10T13:43:33.781Z,93363.13
2019-06-10T13:46:03.165Z,93348.17
2019-06-10T13:48:32.127Z,93326.09
2019-06-10T13:51:03.814Z,93325.58
2019-06-10T13:53:31.182Z,93317.98
2019-06-10T13:56:19.078Z,93322.16
2019-06-10T13:58:30.019Z,93323.78
2019-06-10T14:00:57.889Z,93303.59
2019-06-10T14:03:26.174Z,93289.36
2019-06-10T14:05:58.496Z,93277.14
2019-06-10T14:08:24.782Z,93272.82
2019-06-10T14:10:54.110Z,93271.97
2019-06-10T14:13:23.811Z,93271.72
2019-06-10T14:15:53.412Z,93269.22
2019-06-10T14:18:23.197Z,93246.13
2019-06-10T14:20:53.279Z,93234.13
2019-06-10T14:23:22.152Z,93216.58
2019-06-10T14:25:52.556Z,93205.77
2019-06-10T14:28:38.549Z,93211.41
2019-06-10T14:30:53.755Z,93206.62
2019-06-10T14:33:23.261Z,93185.06
2019-06-10T14:35:53.454Z,93187.14
2019-06-10T14:38:22.228Z,93174.16
2019-06-10T14:40:52.569Z,93177.44
2019-06-10T14:43:23.331Z,93178.60
2019-06-10T14:45:53.364Z,93166.16
2019-06-10T14:48:23.325Z,93155.41
2019-06-10T14:50:51.870Z,93147.78
2019-06-10T14:53:19.450Z,93143.44
2019-06-10T14:55:48.210Z,93147.25
2019-06-10T14:58:19.270Z,93144.19
2019-06-10T15:00:46.858Z,93147.99
2019-06-10T15:03:19.003Z,93144.61
2019-06-10T15:05:45.555Z,93149.31
2019-06-10T15:08:17.134Z,93158.50
2019-06-10T15:10:44.842Z,93169.58
2019-06-10T15:13:13.885Z,93178.77
2019-06-10T15:15:42.549Z,93182.94
2019-06-10T15:18:11.450Z,93170.30
2019-06-10T15:20:42.608Z,93169.14
2019-06-10T15:23:11.535Z,93169.12
2019-06-10T15:25:50.165Z,93179.63
2019-06-10T15:28:12.832Z,93179.06
2019-06-10T15:30:43.207Z,93173.97
2019-06-10T15:33:14.905Z,93162.73
2019-06-10T15:35:42.768Z,93168.70
2019-06-10T15:38:14.858Z,93173.41
2019-06-10T15:40:43.343Z,93192.24
2019-06-10T15:43:12.084Z,93201.63
2019-06-10T15:45:40.392Z,93202.11
2019-06-10T15:48:10.166Z,93191.80
2019-06-10T15:50:38.672Z,93201.98
2019-06-10T15:53:06.573Z,93197.20
2019-06-10T15:56:05.293Z,93204.59
2019-06-10T15:58:05.079Z,93200.64
2019-06-10T16:00:34.072Z,93207.05
2019-06-10T16:03:03.012Z,93214.77
2019-06-10T16:05:32.198Z,93215.88
2019-06-10T16:08:02.165Z,93221.25
2019-06-10T16:10:32.698Z,93230.68
2019-06-10T16:13:03.241Z,93231.09
2019-06-10T16:15:32.879Z,93222.41
2019-06-10T16:18:02.805Z,93208.38
2019-06-10T16:20:32.332Z,93210.78
2019-06-10T16:23:02.721Z,93221.82
2019-06-10T16:25:31.104Z,93220.30
2019-06-10T16:28:02.570Z,93214.23
2019-06-10T16:30:29.510Z,93215.46
2019-06-10T16:32:57.175Z,93231.56
2019-06-10T16:35:26.926Z,93232.65
2019-06-10T16:37:56.806Z,93239.84
2019-06-10T16:40:27.074Z,93235.43
2019-06-10T16:42:55.900Z,93221.10
2019-06-10T16:45:29.294Z,93215.83
2019-06-10T16:47:54.449Z,93216.81
2019-06-10T16:50:24.419Z,93215.05
2019-06-10T16:52:53.644Z,93222.97
2019-06-10T16:55:23.818Z,93233.80
2019-06-10T16:57:59.298Z,93242.50
2019-06-10T17:00:25.630Z,93250.63
2019-06-10T17:02:53.454Z,93252.53
2019-06-10T17:05:25.170Z,93259.88
2019-06-10T17:07:52.575Z,93262.07
2019-06-10T17:10:21.859Z,93270.32
2019-06-10T17:12:59.777Z,93262.87
2019-06-10T17:15:29.365Z,93252.91
2019-06-10T17:17:57.914Z,93257.89
2019-06-10T17:20:27.738Z,93256.72
2019-06-10T17:22:56.073Z,93262.52
2019-06-10T17:25:25.433Z,93263.70
2019-06-10T17:27:54.217Z,93252.95
2019-06-10T17:30:25.180Z,93247.14
2019-06-10T17:32:53.403Z,93245.22
2019-06-10T17:35:22.004Z,93249.10
2019-06-10T17:37:52.326Z,93234.33
2019-06-10T17:40:23.030Z,93228.06
2019-06-10T17:42:53.240Z,93228.72
2019-06-10T17:45:25.748Z,93223.82
2019-06-10T17:47:52.533Z,93228.77
2019-06-10T17:50:22.282Z,93231.82
2019-06-10T17:52:53.415Z,93220.18
2019-06-10T17:55:25.729Z,93217.16
2019-06-10T17:57:52.126Z,93219.25
2019-06-10T18:00:23.022Z,93220.22
2019-06-10T18:02:53.563Z,93228.49
2019-06-10T18:05:31.462Z,93238.23
2019-06-10T18:08:02.173Z,93249.77
2019-06-10T18:10:33.110Z,93242.31
2019-06-10T18:13:13.153Z,93233.09
2019-06-10T18:15:33.312Z,93222.31
2019-06-10T18:18:03.312Z,93217.53
2019-06-10T18:20:33.546Z,93214.55
2019-06-10T18:23:02.762Z,93218.63
2019-06-10T18:25:33.539Z,93230.20
2019-06-10T18:28:02.792Z,93230.11
2019-06-10T18:30:34.660Z,93231.70
2019-06-10T18:33:02.944Z,93231.78
2019-06-10T18:35:34.405Z,93220.27
2019-06-10T18:38:02.337Z,93216.83
2019-06-10T18:40:30.007Z,93221.17
2019-06-10T18:42:58.617Z,93215.09
2019-06-10T18:45:27.614Z,93211.22
2019-06-10T18:47:56.520Z,93210.36
2019-06-10T18:50:26.070Z,93203.66
2019-06-10T18:52:56.781Z,93189.33
2019-06-10T18:55:24.377Z,93168.58
2019-06-10T18:57:53.436Z,93151.97
2019-06-10T19:00:22.963Z,93137.65
2019-06-10T19:03:08.369Z,93136.91
2019-06-10T19:05:22.431Z,93142.70
2019-06-10T19:07:52.759Z,93140.07
2019-06-10T19:10:20.160Z,93140.51
2019-06-10T19:12:48.943Z,93158.67
2019-06-10T19:15:17.782Z,93176.41
2019-06-10T19:17:46.375Z,93181.57
2019-06-10T19:20:15.226Z,93146.80
2019-06-10T19:22:43.827Z,93124.73
2019-06-10T19:25:12.846Z,93132.59
2019-06-10T19:27:44.327Z,93131.08
2019-06-10T19:30:11.563Z,93125.28
2019-06-10T19:32:42.917Z,93132.67
2019-06-10T19:35:12.936Z,93140.31
2019-06-10T19:37:42.348Z,93160.16
2019-06-10T19:40:12.423Z,93163.49
2019-06-10T19:42:40.483Z,93164.16
2019-06-10T19:45:12.501Z,93157.03
2019-06-10T19:47:43.372Z,93169.20
2019-06-10T19:50:12.225Z,93169.59
2019-06-10T19:52:43.694Z,93177.72
2019-06-10T19:55:13.317Z,93190.62
2019-06-10T19:57:41.669Z,93192.39
2019-06-10T20:00:12.756Z,93172.36
2019-06-10T20:02:44.048Z,93156.30
2019-06-10T20:05:12.509Z,93142.13
2019-06-10T20:07:43.962Z,93140.27
2019-06-10T20:10:13.036Z,93143.63
2019-06-10T20:12:44.819Z,93139.55
2019-06-10T20:15:22.412Z,93134.09
2019-06-10T20:17:52.543Z,93140.77
2019-06-10T20:20:22.619Z,93155.20
2019-06-10T20:22:53.400Z,93210.08
2019-06-10T20:25:22.365Z,93242.50
2019-06-10T20:27:52.343Z,93245.99
2019-06-10T20:30:27.533Z,93231.05
2019-06-10T20:32:52.828Z,93224.98
2019-06-10T20:35:22.956Z,93247.58
2019-06-10T20:37:53.834Z,93267.67
2019-06-10T20:40:22.889Z,93279.86
2019-06-10T20:42:51.953Z,93267.39
2019-06-10T20:45:23.237Z,93246.27
2019-06-10T20:47:53.287Z,93238.34
2019-06-10T20:50:22.571Z,93227.84
2019-06-10T20:52:52.447Z,93207.93
2019-06-10T20:55:23.150Z,93190.11
2019-06-10T20:58:02.378Z,93180.72
2019-06-10T21:00:48.064Z,93176.28
2019-06-10T21:03:11.505Z,93156.75
2019-06-10T21:05:41.637Z,93141.45
2019-06-10T21:08:09.477Z,93150.20
2019-06-10T21:10:36.888Z,93157.30
2019-06-10T21:13:07.392Z,93176.02
2019-06-10T21:15:36.995Z,93192.89
2019-06-10T21:18:05.288Z,93191.22
2019-06-10T21:20:33.714Z,93186.87
2019-06-10T21:23:03.188Z,93174.08
2019-06-10T21:25:32.675Z,93168.17
2019-06-10T21:28:03.313Z,93168.82
2019-06-10T21:30:41.311Z,93154.27
2019-06-10T21:33:03.846Z,93127.72
2019-06-10T21:35:33.498Z,93120.34
2019-06-10T21:38:03.407Z,93118.61
2019-06-10T21:40:33.149Z,93113.63
2019-06-10T21:43:03.267Z,93113.44
2019-06-10T21:45:33.079Z,93108.00
2019-06-10T21:48:02.290Z,93104.68
2019-06-10T21:50:33.342Z,93098.70
2019-06-10T21:53:03.097Z,93082.30
2019-06-10T21:55:33.164Z,93056.78
2019-06-10T21:58:03.698Z,93052.44
2019-06-10T22:00:52.949Z,93050.97
2019-06-10T22:03:12.803Z,93041.94
2019-06-10T22:05:43.781Z,93026.36
2019-06-10T22:08:12.630Z,93037.69
2019-06-10T22:10:42.527Z,93032.92
2019-06-10T22:13:12.379Z,93035.50
2019-06-10T22:15:42.584Z,93048.66
2019-06-10T22:18:12.562Z,93046.09
2019-06-10T22:20:42.892Z,93058.55
2019-06-10T22:23:12.803Z,93068.47
2019-06-10T22:25:41.813Z,93089.30
2019-06-10T22:28:12.922Z,93101.55
2019-06-10T22:30:43.091Z,93120.06
2019-06-10T22:33:12.348Z,93146.85
2019-06-10T22:35:42.502Z,93148.71
2019-06-10T22:38:13.052Z,93163.54
2019-06-10T22:40:42.669Z,93166.55
2019-06-10T22:43:12.989Z,93151.04
2019-06-10T22:45:42.435Z,93140.00
2019-06-10T22:48:12.125Z,93135.84
2019-06-10T22:50:43.491Z,93151.31
2019-06-10T22:53:12.644Z,93136.66
2019-06-10T22:55:43.057Z,93142.46
2019-06-10T22:58:14.219Z,93140.41
2019-06-10T23:00:43.622Z,93137.12
2019-06-10T23:03:13.096Z,93116.94
2019-06-10T23:05:43.449Z,93106.26
2019-06-10T23:08:12.645Z,93096.88
2019-06-10T23:10:42.896Z,93097.99
2019-06-10T23:13:13.387Z,93090.33
2019-06-10T23:15:42.854Z,93082.34
2019-06-10T23:18:12.704Z,93084.92
2019-06-10T23:20:42.782Z,93080.13
2019-06-10T23:23:12.691Z,93068.59
2019-06-10T23:25:42.940Z,93063.55
2019-06-10T23:28:12.974Z,93054.81
2019-06-10T23:30:42.602Z,93058.39
2019-06-10T23:33:12.417Z,93060.40
2019-06-10T23:35:42.916Z,93069.70
2019-06-10T23:38:13.223Z,93084.23
2019-06-10T23:40:42.934Z,93078.25
2019-06-10T23:43:13.108Z,93058.16
2019-06-10T23:45:42.182Z,93053.47
2019-06-10T23:48:13.186Z,93070.58
2019-06-10T23:50:40.590Z,93094.13
2019-06-10T23:53:09.300Z,93111.34
2019-06-10T23:55:38.018Z,93132.78
2019-06-10T23:58:06.671Z,93160.77
